createdAt,value
2018-07-12T00:01:41.657Z,15.77
2018-07-12T00:04:08.766Z,15.76
2018-07-12T00:06:35.866Z,15.78
2018-07-12T00:09:03.330Z,15.78
2018-07-12T00:11:30.438Z,15.86
2018-07-12T00:13:57.533Z,15.92
2018-07-12T00:16:24.653Z,15.94
2018-07-12T00:18:51.765Z,15.94
2018-07-12T00:21:18.867Z,15.90
2018-07-12T00:23:45.983Z,15.85
2018-07-12T00:26:13.176Z,15.97
2018-07-12T00:28:40.260Z,15.97
2018-07-12T00:31:07.378Z,15.99
2018-07-12T00:33:34.529Z,16.03
2018-07-12T00:36:01.573Z,16.10
2018-07-12T00:38:28.691Z,16.10
2018-07-12T00:40:55.801Z,16.10
2018-07-12T00:43:22.906Z,16.13
2018-07-12T00:45:50.018Z,16.15
2018-07-12T00:48:17.402Z,16.08
2018-07-12T00:50:44.515Z,16.09
2018-07-12T00:53:11.654Z,16.06
2018-07-12T00:55:38.749Z,16.08
2018-07-12T00:58:05.849Z,16.11
2018-07-12T01:00:32.973Z,16.13
2018-07-12T01:03:00.088Z,16.13
2018-07-12T01:05:27.199Z,16.17
2018-07-12T01:07:54.315Z,16.25
2018-07-12T01:10:21.467Z,16.30
2018-07-12T01:12:48.557Z,16.15
2018-07-12T01:15:15.671Z,16.09
2018-07-12T01:17:42.782Z,16.18
2018-07-12T01:20:09.881Z,16.24
2018-07-12T01:22:36.997Z,16.28
2018-07-12T01:25:04.103Z,16.24
2018-07-12T01:27:31.205Z,16.27
2018-07-12T01:29:58.313Z,16.27
2018-07-12T01:32:25.437Z,16.12
2018-07-12T01:34:52.532Z,16.24
2018-07-12T01:37:19.650Z,16.19
2018-07-12T01:39:46.754Z,16.09
2018-07-12T01:42:13.866Z,15.98
2018-07-12T01:44:40.982Z,15.97
2018-07-12T01:47:08.336Z,15.92
2018-07-12T01:49:35.436Z,15.83
2018-07-12T01:52:02.549Z,15.87
2018-07-12T01:54:29.756Z,15.85
2018-07-12T01:56:57.074Z,15.74
2018-07-12T01:59:24.189Z,15.70
2018-07-12T02:01:51.358Z,15.64
2018-07-12T02:04:18.813Z,15.53
2018-07-12T02:06:45.925Z,15.53
2018-07-12T02:09:13.025Z,15.54
2018-07-12T02:11:40.125Z,15.46
2018-07-12T02:14:07.233Z,15.41
2018-07-12T02:16:34.330Z,15.36
2018-07-12T02:19:01.505Z,15.37
2018-07-12T02:21:28.610Z,15.36
2018-07-12T02:23:55.707Z,15.33
2018-07-12T02:26:22.808Z,15.36
2018-07-12T02:28:49.946Z,15.43
2018-07-12T02:31:17.044Z,15.39
2018-07-12T02:33:44.145Z,15.46
2018-07-12T02:36:11.251Z,15.40
2018-07-12T02:38:38.358Z,15.53
2018-07-12T02:41:05.466Z,15.54
2018-07-12T02:43:32.577Z,15.52
2018-07-12T02:45:59.683Z,15.53
2018-07-12T02:48:26.792Z,15.53
2018-07-12T02:50:53.905Z,15.55
2018-07-12T02:53:21.005Z,15.63
2018-07-12T02:55:48.108Z,15.60
2018-07-12T02:58:15.226Z,15.71
2018-07-12T03:00:42.326Z,15.57
2018-07-12T03:03:09.438Z,15.54
2018-07-12T03:05:36.554Z,15.70
2018-07-12T03:08:03.673Z,15.70
2018-07-12T03:10:30.775Z,15.67
2018-07-12T03:12:57.890Z,15.60
2018-07-12T03:15:24.997Z,15.62
2018-07-12T03:17:52.097Z,15.61
2018-07-12T03:20:19.213Z,15.78
2018-07-12T03:22:46.332Z,15.63
2018-07-12T03:25:13.435Z,15.75
2018-07-12T03:27:40.541Z,15.86
2018-07-12T03:30:07.645Z,15.77
2018-07-12T03:32:34.749Z,15.83
2018-07-12T03:35:01.861Z,15.78
2018-07-12T03:37:28.969Z,15.96
2018-07-12T03:39:56.061Z,15.88
2018-07-12T03:42:23.177Z,16.12
2018-07-12T03:44:50.291Z,16.09
2018-07-12T03:47:17.414Z,16.09
2018-07-12T03:49:44.533Z,16.09
2018-07-12T03:52:11.710Z,15.97
2018-07-12T03:54:38.834Z,15.78
2018-07-12T03:57:06.190Z,15.83
2018-07-12T03:59:33.286Z,16.08
2018-07-12T04:02:00.388Z,16.04
2018-07-12T04:04:27.526Z,16.08
2018-07-12T04:06:54.634Z,16.20
2018-07-12T04:09:21.733Z,16.26
2018-07-12T04:11:48.845Z,16.19
2018-07-12T04:14:15.949Z,16.13
2018-07-12T04:16:43.354Z,16.00
2018-07-12T04:19:10.465Z,16.03
2018-07-12T04:21:38.217Z,16.03
2018-07-12T04:24:05.338Z,16.04
2018-07-12T04:26:32.445Z,16.29
2018-07-12T04:28:59.555Z,16.05
2018-07-12T04:31:26.692Z,16.04
2018-07-12T04:33:53.895Z,16.17
2018-07-12T04:36:21.132Z,16.18
2018-07-12T04:38:48.233Z,16.03
2018-07-12T04:41:15.353Z,16.11
2018-07-12T04:43:42.445Z,16.08
2018-07-12T04:46:09.548Z,15.92
2018-07-12T04:48:36.657Z,16.15
2018-07-12T04:51:03.759Z,16.12
2018-07-12T04:53:30.859Z,16.18
2018-07-12T04:55:57.982Z,16.19
2018-07-12T04:58:25.114Z,16.01
2018-07-12T05:00:52.194Z,16.03
2018-07-12T05:03:19.300Z,16.04
2018-07-12T05:05:46.424Z,15.75
2018-07-12T05:08:13.549Z,15.88
2018-07-12T05:10:40.633Z,15.94
2018-07-12T05:13:07.733Z,15.90
2018-07-12T05:15:34.838Z,16.06
2018-07-12T05:18:01.962Z,16.08
2018-07-12T05:20:29.101Z,16.04
2018-07-12T05:22:56.205Z,16.20
2018-07-12T05:25:23.416Z,16.03
2018-07-12T05:27:50.511Z,16.06
2018-07-12T05:30:17.621Z,15.97
2018-07-12T05:32:44.735Z,16.10
2018-07-12T05:35:12.157Z,16.31
2018-07-12T05:37:40.315Z,16.45
2018-07-12T05:40:08.519Z,16.56
2018-07-12T05:42:36.683Z,16.50
2018-07-12T05:45:04.913Z,16.46
2018-07-12T05:47:33.077Z,16.37
2018-07-12T05:50:01.249Z,16.26
2018-07-12T05:52:29.422Z,16.16
2018-07-12T05:54:57.602Z,16.07
2018-07-12T05:57:25.834Z,16.06
2018-07-12T05:59:53.956Z,16.12
2018-07-12T06:02:23.582Z,16.24
2018-07-12T06:04:51.954Z,16.27
2018-07-12T06:07:25.574Z,16.34
2018-07-12T06:09:54.038Z,16.27
2018-07-12T06:12:22.206Z,16.26
2018-07-12T06:14:50.796Z,16.31
2018-07-12T06:17:19.015Z,16.44
2018-07-12T06:19:47.436Z,16.33
2018-07-12T06:22:15.679Z,16.36
2018-07-12T06:24:43.920Z,16.36
2018-07-12T06:27:12.037Z,16.27
2018-07-12T06:29:40.226Z,16.33
2018-07-12T06:32:08.411Z,16.27
2018-07-12T06:34:36.687Z,16.30
2018-07-12T06:37:04.924Z,16.32
2018-07-12T06:39:33.089Z,16.35
2018-07-12T06:42:01.423Z,16.40
2018-07-12T06:44:29.661Z,16.48
2018-07-12T06:46:58.476Z,16.54
2018-07-12T06:49:26.628Z,16.51
2018-07-12T06:51:54.899Z,16.62
2018-07-12T06:54:23.070Z,16.68
2018-07-12T06:56:51.333Z,16.67
2018-07-12T06:59:19.516Z,16.70
2018-07-12T07:01:47.691Z,16.79
2018-07-12T07:04:15.858Z,16.93
2018-07-12T07:06:44.158Z,17.06
2018-07-12T07:09:12.622Z,17.02
2018-07-12T07:11:41.340Z,17.08
2018-07-12T07:14:09.928Z,17.12
2018-07-12T07:16:38.204Z,16.88
2018-07-12T07:19:06.396Z,17.34
2018-07-12T07:21:34.618Z,17.60
2018-07-12T07:24:02.808Z,17.96
2018-07-12T07:26:30.987Z,18.23
2018-07-12T07:28:59.198Z,18.58
2018-07-12T07:31:27.522Z,18.40
2018-07-12T07:33:55.706Z,18.36
2018-07-12T07:36:23.970Z,18.61
2018-07-12T07:38:52.152Z,18.79
2018-07-12T07:41:20.322Z,18.74
2018-07-12T07:43:48.520Z,19.09
2018-07-12T07:46:16.757Z,19.22
2018-07-12T07:48:44.921Z,19.46
2018-07-12T07:51:13.125Z,19.77
2018-07-12T07:53:41.293Z,20.31
2018-07-12T07:56:09.458Z,20.90
2018-07-12T07:58:37.979Z,20.92
2018-07-12T08:01:06.149Z,21.47
2018-07-12T08:03:34.330Z,21.70
2018-07-12T08:06:02.519Z,21.46
2018-07-12T08:08:30.729Z,20.95
2018-07-12T08:10:59.013Z,20.95
2018-07-12T08:13:27.201Z,21.93
2018-07-12T08:15:55.649Z,21.42
2018-07-12T08:18:23.822Z,22.14
2018-07-12T08:20:51.997Z,21.78
2018-07-12T08:23:20.152Z,21.38
2018-07-12T08:25:48.659Z,20.87
2018-07-12T08:28:24.346Z,21.45
2018-07-12T08:30:52.518Z,20.85
2018-07-12T08:33:20.811Z,21.18
2018-07-12T08:35:49.301Z,21.52
2018-07-12T08:38:17.510Z,21.65
2018-07-12T08:40:46.053Z,21.91
2018-07-12T08:43:14.230Z,21.97
2018-07-12T08:45:42.701Z,22.01
2018-07-12T08:48:10.871Z,22.09
2018-07-12T08:50:39.465Z,22.29
2018-07-12T08:53:07.848Z,22.82
2018-07-12T08:55:36.013Z,23.57
2018-07-12T08:58:04.249Z,23.70
2018-07-12T09:00:32.432Z,23.57
2018-07-12T09:03:00.693Z,23.43
2018-07-12T09:05:28.809Z,24.08
2018-07-12T09:07:56.979Z,22.41
2018-07-12T09:10:25.139Z,23.38
2018-07-12T09:12:53.762Z,22.34
2018-07-12T09:15:21.982Z,23.29
2018-07-12T09:17:50.262Z,24.60
2018-07-12T09:20:18.453Z,25.41
2018-07-12T09:22:46.697Z,23.10
2018-07-12T09:25:15.442Z,21.97
2018-07-12T09:27:43.679Z,22.41
2018-07-12T09:30:11.897Z,24.13
2018-07-12T09:32:40.064Z,24.67
2018-07-12T09:35:08.248Z,24.50
2018-07-12T09:37:36.451Z,24.06
2018-07-12T09:40:04.818Z,24.29
2018-07-12T09:42:33.010Z,23.85
2018-07-12T09:45:01.258Z,23.40
2018-07-12T09:47:29.623Z,24.40
2018-07-12T09:49:57.923Z,24.69
2018-07-12T09:52:33.326Z,24.02
2018-07-12T09:55:02.245Z,24.32
2018-07-12T09:57:42.372Z,24.09
2018-07-12T10:00:10.926Z,25.38
2018-07-12T10:02:44.521Z,24.91
2018-07-12T10:05:18.050Z,25.05
2018-07-12T10:07:51.609Z,24.82
2018-07-12T10:10:23.986Z,24.87
2018-07-12T10:12:57.465Z,23.99
2018-07-12T10:15:30.993Z,25.21
2018-07-12T10:18:36.239Z,25.16
2018-07-12T10:21:04.421Z,24.89
2018-07-12T10:23:32.584Z,24.71
2018-07-12T10:26:00.761Z,24.33
2018-07-12T10:28:29.004Z,24.07
2018-07-12T10:30:57.184Z,24.38
2018-07-12T10:33:25.363Z,25.68
2018-07-12T10:35:53.980Z,25.83
2018-07-12T10:38:22.538Z,25.58
2018-07-12T10:40:50.832Z,26.41
2018-07-12T10:43:19.024Z,25.92
2018-07-12T10:45:47.254Z,25.16
2018-07-12T10:48:15.426Z,24.77
2018-07-12T10:50:43.637Z,24.17
2018-07-12T10:53:11.940Z,23.72
2018-07-12T10:55:40.100Z,24.11
2018-07-12T10:58:08.309Z,24.68
2018-07-12T11:00:36.485Z,24.58
2018-07-12T11:03:04.697Z,24.81
2018-07-12T11:05:32.881Z,24.66
2018-07-12T11:08:01.097Z,24.84
2018-07-12T11:10:29.408Z,26.76
2018-07-12T11:13:09.102Z,26.94
2018-07-12T11:15:37.320Z,26.33
2018-07-12T11:18:05.610Z,26.42
2018-07-12T11:20:33.803Z,27.81
2018-07-12T11:23:01.971Z,29.31
2018-07-12T11:25:30.538Z,29.10
2018-07-12T11:27:58.729Z,29.53
2018-07-12T11:30:26.908Z,29.32
2018-07-12T11:32:55.158Z,30.98
2018-07-12T11:35:23.366Z,29.45
2018-07-12T11:37:51.648Z,35.76
2018-07-12T11:40:19.882Z,29.89
2018-07-12T11:42:48.494Z,28.61
2018-07-12T11:45:16.684Z,27.33
2018-07-12T11:47:44.850Z,28.62
2018-07-12T11:50:13.416Z,34.13
2018-07-12T11:52:41.659Z,39.71
2018-07-12T11:55:09.799Z,41.07
2018-07-12T11:57:37.984Z,31.87
2018-07-12T12:00:06.522Z,35.57
2018-07-12T12:02:34.993Z,34.60
2018-07-12T12:05:03.342Z,35.18
2018-07-12T12:07:31.590Z,37.61
2018-07-12T12:09:59.757Z,34.37
2018-07-12T12:12:27.976Z,28.24
2018-07-12T12:14:56.469Z,33.02
2018-07-12T12:17:24.669Z,38.86
2018-07-12T12:19:52.855Z,43.08
2018-07-12T12:22:21.031Z,43.76
2018-07-12T12:24:49.269Z,39.21
2018-07-12T12:27:17.482Z,37.10
2018-07-12T12:29:45.701Z,39.19
2018-07-12T12:32:13.873Z,40.40
2018-07-12T12:34:42.075Z,34.81
2018-07-12T12:37:10.565Z,37.60
2018-07-12T12:39:38.760Z,32.51
2018-07-12T12:42:06.967Z,37.66
2018-07-12T12:44:35.223Z,39.79
2018-07-12T12:47:03.398Z,38.95
2018-07-12T12:49:31.574Z,35.54
2018-07-12T12:51:59.746Z,41.23
2018-07-12T12:54:28.078Z,38.21
2018-07-12T12:56:56.562Z,41.72
2018-07-12T12:59:24.712Z,44.86
2018-07-12T13:01:52.902Z,40.87
2018-07-12T13:04:21.536Z,45.02
2018-07-12T13:06:49.741Z,40.43
2018-07-12T13:09:18.258Z,41.64
2018-07-12T13:11:46.434Z,42.28
2018-07-12T13:14:14.603Z,41.69
2018-07-12T13:16:42.757Z,40.78
2018-07-12T13:19:11.013Z,39.93
2018-07-12T13:21:39.273Z,41.64
2018-07-12T13:24:07.461Z,43.67
2018-07-12T13:26:35.645Z,42.02
2018-07-12T13:29:03.987Z,45.08
2018-07-12T13:31:32.145Z,43.45
2018-07-12T13:34:00.399Z,41.19
2018-07-12T13:36:28.593Z,43.17
2018-07-12T13:38:56.736Z,47.15
2018-07-12T13:41:24.943Z,44.97
2018-07-12T13:44:04.313Z,46.46
2018-07-12T13:46:32.499Z,40.08
2018-07-12T13:49:00.657Z,33.17
2018-07-12T13:51:28.906Z,33.59
2018-07-12T13:53:57.306Z,38.24
2018-07-12T13:56:25.557Z,42.06
2018-07-12T13:58:53.730Z,36.70
2018-07-12T14:01:21.952Z,33.38
2018-07-12T14:03:50.122Z,37.21
2018-07-12T14:06:18.309Z,40.03
2018-07-12T14:08:46.494Z,42.70
2018-07-12T14:11:14.721Z,41.71
2018-07-12T14:13:42.946Z,43.10
2018-07-12T14:16:11.141Z,45.36
2018-07-12T14:18:39.361Z,43.48
2018-07-12T14:21:07.541Z,40.62
2018-07-12T14:23:35.721Z,43.70
2018-07-12T14:26:04.176Z,41.98
2018-07-12T14:28:32.345Z,44.91
2018-07-12T14:31:00.561Z,39.40
2018-07-12T14:33:28.925Z,35.01
2018-07-12T14:35:57.163Z,37.97
2018-07-12T14:38:25.410Z,42.25
2018-07-12T14:40:53.590Z,40.38
2018-07-12T14:43:21.768Z,43.07
2018-07-12T14:45:49.941Z,46.97
2018-07-12T14:48:18.135Z,41.29
2018-07-12T14:50:46.327Z,42.78
2018-07-12T14:53:14.498Z,44.39
2018-07-12T14:55:42.679Z,43.48
2018-07-12T14:58:10.851Z,38.90
2018-07-12T15:00:39.026Z,37.90
2018-07-12T15:03:07.376Z,42.89
2018-07-12T15:05:35.643Z,40.60
2018-07-12T15:08:03.918Z,39.34
2018-07-12T15:10:32.186Z,34.89
2018-07-12T15:13:00.376Z,36.49
2018-07-12T15:15:28.586Z,37.75
2018-07-12T15:17:56.774Z,38.56
2018-07-12T15:20:24.989Z,38.62
2018-07-12T15:22:53.181Z,34.17
2018-07-12T15:25:21.358Z,32.64
2018-07-12T15:27:49.606Z,34.43
2018-07-12T15:30:17.718Z,35.37
2018-07-12T15:32:45.981Z,33.15
2018-07-12T15:35:14.154Z,32.77
2018-07-12T15:37:49.085Z,32.33
2018-07-12T15:40:17.289Z,33.21
2018-07-12T15:42:45.473Z,32.25
2018-07-12T15:45:13.989Z,30.01
2018-07-12T15:47:42.187Z,29.83
2018-07-12T15:50:10.477Z,29.58
2018-07-12T15:52:38.687Z,30.31
2018-07-12T15:55:07.194Z,29.22
2018-07-12T15:57:35.444Z,28.80
2018-07-12T16:00:03.690Z,28.18
2018-07-12T16:02:31.882Z,28.56
2018-07-12T16:05:00.079Z,28.64
2018-07-12T16:07:28.344Z,28.59
2018-07-12T16:09:56.514Z,28.68
2018-07-12T16:12:24.696Z,28.85
2018-07-12T16:14:52.888Z,29.45
2018-07-12T16:17:21.126Z,27.68
2018-07-12T16:19:49.317Z,28.10
2018-07-12T16:22:17.511Z,28.44
2018-07-12T16:24:45.697Z,28.51
2018-07-12T16:27:13.909Z,28.25
2018-07-12T16:29:42.329Z,28.37
2018-07-12T16:32:10.568Z,27.82
2018-07-12T16:34:38.741Z,28.07
2018-07-12T16:37:07.524Z,28.04
2018-07-12T16:39:35.680Z,27.59
2018-07-12T16:42:03.844Z,27.65
2018-07-12T16:44:32.033Z,26.85
2018-07-12T16:47:00.219Z,26.84
2018-07-12T16:49:28.403Z,27.80
2018-07-12T16:51:56.594Z,27.50
2018-07-12T16:54:24.806Z,27.37
2018-07-12T16:56:53.088Z,27.88
2018-07-12T16:59:21.260Z,27.44
2018-07-12T17:01:49.734Z,26.95
2018-07-12T17:04:17.954Z,26.89
2018-07-12T17:06:46.146Z,27.16
2018-07-12T17:09:14.347Z,27.16
2018-07-12T17:11:42.539Z,26.92
2018-07-12T17:14:10.874Z,26.90
2018-07-12T17:16:39.066Z,27.01
2018-07-12T17:19:07.326Z,26.84
2018-07-12T17:21:35.646Z,26.75
2018-07-12T17:24:03.930Z,27.01
2018-07-12T17:26:32.126Z,27.07
2018-07-12T17:29:00.318Z,26.87
2018-07-12T17:31:28.654Z,26.40
2018-07-12T17:33:57.045Z,26.53
2018-07-12T17:36:25.399Z,26.46
2018-07-12T17:38:54.474Z,26.49
2018-07-12T17:41:22.821Z,26.73
2018-07-12T17:43:51.009Z,26.32
2018-07-12T17:46:19.233Z,26.55
2018-07-12T17:48:47.481Z,26.41
2018-07-12T17:51:15.674Z,25.88
2018-07-12T17:53:43.928Z,25.85
2018-07-12T17:56:12.135Z,25.69
2018-07-12T17:58:40.586Z,25.16
2018-07-12T18:01:09.125Z,25.30
2018-07-12T18:03:37.326Z,24.90
2018-07-12T18:06:05.742Z,24.90
2018-07-12T18:08:33.903Z,24.71
2018-07-12T18:11:02.173Z,24.65
2018-07-12T18:13:31.002Z,24.70
2018-07-12T18:15:59.549Z,24.72
2018-07-12T18:18:27.841Z,24.57
2018-07-12T18:20:56.106Z,24.40
2018-07-12T18:23:24.626Z,24.39
2018-07-12T18:25:52.794Z,24.35
2018-07-12T18:28:20.972Z,24.20
2018-07-12T18:30:49.212Z,24.11
2018-07-12T18:33:18.290Z,23.97
2018-07-12T18:35:46.490Z,23.87
2018-07-12T18:38:14.665Z,23.78
2018-07-12T18:40:42.830Z,23.64
2018-07-12T18:43:11.038Z,23.47
2018-07-12T18:45:39.201Z,23.40
2018-07-12T18:48:07.430Z,23.29
2018-07-12T18:50:35.629Z,23.23
2018-07-12T18:53:03.876Z,23.12
2018-07-12T18:55:32.092Z,22.94
2018-07-12T18:58:00.553Z,22.84
2018-07-12T19:00:28.791Z,22.74
2018-07-12T19:02:56.990Z,22.61
2018-07-12T19:05:25.221Z,22.51
2018-07-12T19:07:53.860Z,22.42
2018-07-12T19:10:22.112Z,22.31
2018-07-12T19:12:50.463Z,22.18
2018-07-12T19:15:18.744Z,22.08
2018-07-12T19:17:46.946Z,21.90
2018-07-12T19:20:15.147Z,21.77
2018-07-12T19:22:43.370Z,21.73
2018-07-12T19:25:11.582Z,21.67
2018-07-12T19:27:39.822Z,21.62
2018-07-12T19:30:08.446Z,21.52
2018-07-12T19:32:36.705Z,21.38
2018-07-12T19:35:05.375Z,21.33
2018-07-12T19:37:33.434Z,21.27
2018-07-12T19:40:01.651Z,21.21
2018-07-12T19:42:29.853Z,21.15
2018-07-12T19:44:58.207Z,21.04
2018-07-12T19:47:26.454Z,20.91
2018-07-12T19:49:54.767Z,20.78
2018-07-12T19:52:23.141Z,20.67
2018-07-12T19:54:51.353Z,20.59
2018-07-12T19:57:19.597Z,20.49
2018-07-12T19:59:47.771Z,20.49
2018-07-12T20:02:16.039Z,20.43
2018-07-12T20:04:44.282Z,20.34
2018-07-12T20:07:13.745Z,20.25
2018-07-12T20:09:41.967Z,20.19
2018-07-12T20:12:10.179Z,20.07
2018-07-12T20:14:38.435Z,19.99
2018-07-12T20:17:06.707Z,19.94
2018-07-12T20:19:35.011Z,19.85
2018-07-12T20:22:03.234Z,19.72
2018-07-12T20:24:31.408Z,19.70
2018-07-12T20:26:59.867Z,19.70
2018-07-12T20:29:28.056Z,19.71
2018-07-12T20:31:56.312Z,19.63
2018-07-12T20:34:24.546Z,19.62
2018-07-12T20:36:53.613Z,19.57
2018-07-12T20:39:21.794Z,19.50
2018-07-12T20:41:50.154Z,19.47
2018-07-12T20:44:18.614Z,19.43
2018-07-12T20:46:46.845Z,19.38
2018-07-12T20:49:15.137Z,19.34
2018-07-12T20:51:43.354Z,19.25
2018-07-12T20:54:11.550Z,19.21
2018-07-12T20:56:39.850Z,19.13
2018-07-12T20:59:08.081Z,19.11
2018-07-12T21:01:36.278Z,19.04
2018-07-12T21:04:04.556Z,18.81
2018-07-12T21:06:32.954Z,18.71
2018-07-12T21:09:02.669Z,18.55
2018-07-12T21:11:30.875Z,18.50
2018-07-12T21:13:59.093Z,18.44
2018-07-12T21:16:28.817Z,18.39
2018-07-12T21:18:57.007Z,18.31
2018-07-12T21:21:25.213Z,18.27
2018-07-12T21:23:53.473Z,18.31
2018-07-12T21:26:21.721Z,18.34
2018-07-12T21:28:49.886Z,18.26
2018-07-12T21:31:18.080Z,18.27
2018-07-12T21:33:46.313Z,18.41
2018-07-12T21:36:14.502Z,18.41
2018-07-12T21:38:42.668Z,18.54
2018-07-12T21:41:10.971Z,18.64
2018-07-12T21:43:39.188Z,18.78
2018-07-12T21:46:07.360Z,18.86
2018-07-12T21:48:35.538Z,18.94
2018-07-12T21:51:03.702Z,18.99
2018-07-12T21:53:31.870Z,19.03
2018-07-12T21:56:00.062Z,19.06
2018-07-12T21:58:28.334Z,19.11
2018-07-12T22:00:56.490Z,19.12
2018-07-12T22:03:24.757Z,19.14
2018-07-12T22:05:53.466Z,19.20
2018-07-12T22:08:23.597Z,19.24
2018-07-12T22:10:53.134Z,19.17
2018-07-12T22:13:22.080Z,19.16
2018-07-12T22:15:50.260Z,19.21
2018-07-12T22:18:18.449Z,19.25
2018-07-12T22:20:46.643Z,19.30
2018-07-12T22:23:14.819Z,19.24
2018-07-12T22:25:43.035Z,19.23
2018-07-12T22:28:11.223Z,19.08
2018-07-12T22:30:39.465Z,19.20
2018-07-12T22:33:07.666Z,19.25
2018-07-12T22:35:35.842Z,19.22
2018-07-12T22:38:04.434Z,19.22
2018-07-12T22:40:32.849Z,19.23
2018-07-12T22:43:01.029Z,19.20
2018-07-12T22:45:29.234Z,19.17
2018-07-12T22:47:57.525Z,19.14
2018-07-12T22:50:25.981Z,19.16
2018-07-12T22:52:54.249Z,19.07
2018-07-12T22:55:22.468Z,19.03
2018-07-12T22:57:50.638Z,19.03
2018-07-12T23:00:18.822Z,18.98
2018-07-12T23:02:47.297Z,19.04
2018-07-12T23:05:15.745Z,19.08
2018-07-12T23:07:43.905Z,18.98
2018-07-12T23:10:13.057Z,18.92
2018-07-12T23:12:41.251Z,18.90
2018-07-12T23:15:09.427Z,18.92
2018-07-12T23:17:37.644Z,18.93
2018-07-12T23:20:05.848Z,18.96
2018-07-12T23:22:34.059Z,18.84
2018-07-12T23:25:02.242Z,18.81
2018-07-12T23:27:30.425Z,18.91
2018-07-12T23:29:58.876Z,19.06
2018-07-12T23:32:27.056Z,19.01
2018-07-12T23:34:55.338Z,19.02
2018-07-12T23:37:23.532Z,19.06
2018-07-12T23:39:51.716Z,19.06
2018-07-12T23:42:19.889Z,19.12
2018-07-12T23:44:48.052Z,19.12
2018-07-12T23:47:16.272Z,19.17
2018-07-12T23:49:44.442Z,19.22
2018-07-12T23:52:12.826Z,19.19
2018-07-12T23:54:40.992Z,19.19
2018-07-12T23:57:09.166Z,19.04
2018-07-12T23:59:37.410Z,19.04
